Time;durP1;ratioP1;P1;durP2;ratioP2;P2;SDS_P1;SDS_P2;PMS_P1;PMS_P2;Temp;Humidity;BMP_temperature;BMP_pressure;BME280_temperature;BME280_humidity;BME280_pressure;Samples;Min_cycle;Max_cycle;Signal;HPM_P1;HPM_P2
2022/05/03 00:00:00;;;;;;;1.70;0.90;;;;;;;2.59;83.48;101888.84;2079563;28;45923;-62
2022/05/03 00:01:29;;;;;;;2.33;1.20;;;;;;;2.60;84.12;101880.06;2080197;28;44818;-62
2022/05/03 00:02:49;;;;;;;1.08;0.80;;;;;;;2.59;83.85;101883.56;2079598;28;46858;-62
2022/05/03 00:04:23;;;;;;;1.23;0.80;;;;;;;2.56;83.23;101883.47;2080126;28;41929;-62
2022/05/03 00:05:55;;;;;;;1.75;0.85;;;;;;;2.56;83.75;101882.59;2087676;28;40099;-62
2022/05/03 00:07:03;;;;;;;2.17;0.95;;;;;;;2.54;83.71;101886.94;2082106;28;45590;-62
2022/05/03 00:08:23;;;;;;;1.75;0.93;;;;;;;2.52;83.32;101886.03;2087571;28;38280;-63
2022/05/03 00:09:49;;;;;;;2.10;1.33;;;;;;;2.46;83.76;101881.47;2084547;28;44509;-62
2022/05/03 00:11:21;;;;;;;2.25;1.10;;;;;;;2.44;84.15;101886.72;2087712;28;42301;-63
2022/05/03 00:12:36;;;;;;;2.28;1.10;;;;;;;2.44;84.08;101875.22;2079081;28;44313;-62
2022/05/03 00:13:54;;;;;;;1.80;1.27;;;;;;;2.45;83.79;101877.03;2081253;28;43454;-63
2022/05/03 00:15:00;;;;;;;2.13;1.35;;;;;;;2.43;83.50;101879.63;2086085;28;28772;-63
2022/05/03 00:16:02;;;;;;;1.27;0.80;;;;;;;2.43;84.45;101882.28;2086903;28;45377;-62
2022/05/03 00:17:04;;;;;;;2.65;0.93;;;;;;;2.43;84.04;101881.38;2079631;28;42742;-62
2022/05/03 00:18:07;;;;;;;2.10;1.27;;;;;;;2.43;84.58;101876.09;2078872;28;44361;-63
2022/05/03 00:19:10;;;;;;;1.50;1.00;;;;;;;2.41;82.70;101875.19;2079882;28;44681;-63
2022/05/03 00:20:13;;;;;;;2.00;1.20;;;;;;;2.38;83.67;101881.25;2080575;28;20913;-62
2022/05/03 00:21:14;;;;;;;1.40;1.00;;;;;;;2.38;83.07;101872.44;2086942;28;42524;-62
2022/05/03 00:22:17;;;;;;;2.03;1.20;;;;;;;2.36;83.19;101874.16;2079844;28;24468;-63
2022/05/03 00:23:22;;;;;;;1.70;0.80;;;;;;;2.34;83.58;101875.88;2078845;28;43750;-62
2022/05/03 00:24:23;;;;;;;1.50;1.00;;;;;;;2.31;83.58;101874.03;2086228;28;47907;-62
2022/05/03 00:25:29;;;;;;;2.38;1.20;;;;;;;2.35;85.15;101867.06;2079128;28;43778;-63
2022/05/03 00:26:31;;;;;;;1.75;1.00;;;;;;;2.37;85.03;101868.91;2071860;28;45427;-63
2022/05/03 00:27:34;;;;;;;3.75;1.20;;;;;;;2.38;84.50;101875.09;2079924;28;44624;-62
2022/05/03 00:28:38;;;;;;;2.95;1.00;;;;;;;2.34;84.62;101875.88;2079883;28;20083;-63
2022/05/03 00:29:40;;;;;;;3.05;1.48;;;;;;;2.35;83.77;101877.66;2071640;28;46064;-63
2022/05/03 00:30:42;;;;;;;1.00;0.57;;;;;;;2.35;84.38;101878.56;2071587;28;43505;-63
2022/05/03 00:31:44;;;;;;;1.75;1.00;;;;;;;2.35;84.71;101877.66;2072591;28;20935;-63
2022/05/03 00:32:47;;;;;;;2.00;1.10;;;;;;;2.28;84.28;101882.78;2071168;28;45715;-62
2022/05/03 00:33:51;;;;;;;2.97;0.98;;;;;;;2.28;84.93;101879.25;2071731;28;43737;-63
2022/05/03 00:34:55;;;;;;;2.83;1.20;;;;;;;2.23;84.55;101879.13;2080095;28;20792;-62
2022/05/03 00:35:57;;;;;;;2.10;1.33;;;;;;;2.22;84.93;101873.78;2087321;28;43440;-63
2022/05/03 00:37:00;;;;;;;1.73;1.30;;;;;;;2.22;84.66;101887.00;2079579;28;24277;-63
2022/05/03 00:38:01;;;;;;;4.68;1.10;;;;;;;2.20;85.81;101884.31;2079160;28;45782;-62
2022/05/03 00:39:03;;;;;;;2.03;1.15;;;;;;;2.21;85.45;101880.84;2080119;28;42768;-62
2022/05/03 00:40:09;;;;;;;1.85;1.00;;;;;;;2.20;85.17;101886.97;2081148;28;20172;-62
2022/05/03 00:41:31;;;;;;;2.25;1.00;;;;;;;2.13;85.07;101887.66;2080478;28;29660;-62
2022/05/03 00:42:49;;;;;;;1.80;1.33;;;;;;;2.14;85.22;101883.28;2079171;28;45436;-63
2022/05/03 00:44:03;;;;;;;3.47;1.30;;;;;;;2.16;85.30;101886.84;2074316;28;20089;-62
2022/05/03 00:45:26;;;;;;;1.40;1.10;;;;;;;2.14;84.96;101889.44;2080318;28;37949;-63
2022/05/03 00:46:36;;;;;;;1.90;1.13;;;;;;;2.17;86.34;101888.63;2070571;28;44753;-63
2022/05/03 00:48:14;;;;;;;2.28;1.17;;;;;;;2.13;85.84;101892.03;2072918;28;35454;-63
2022/05/03 00:49:29;;;;;;;1.63;1.10;;;;;;;2.09;84.96;101886.66;2070212;28;44631;-62
2022/05/03 00:50:42;;;;;;;2.22;1.23;;;;;;;2.08;86.19;101883.97;2078766;28;46400;-63
2022/05/03 00:52:11;;;;;;;2.20;1.30;;;;;;;2.06;85.71;101889.25;2078968;28;43679;-63
2022/05/03 00:53:21;;;;;;;2.35;0.75;;;;;;;2.05;85.67;101884.81;2079488;28;44057;-63
2022/05/03 00:54:38;;;;;;;2.13;1.30;;;;;;;2.04;86.26;101882.13;2079468;28;45257;-63
2022/05/03 00:55:49;;;;;;;2.03;1.10;;;;;;;2.03;86.61;101891.81;2080545;28;20073;-63
2022/05/03 00:57:20;;;;;;;3.40;1.52;;;;;;;1.99;85.68;101881.09;2079884;28;44204;-63
2022/05/03 00:58:42;;;;;;;2.00;1.60;;;;;;;1.96;86.41;101884.56;2045871;28;20162;-63
2022/05/03 01:00:07;;;;;;;2.60;1.60;;;;;;;1.97;86.38;101888.09;2078316;28;43414;-63
2022/05/03 01:01:15;;;;;;;1.58;0.95;;;;;;;1.95;85.94;101887.16;2081202;28;45379;-63
2022/05/03 01:02:32;;;;;;;3.25;1.50;;;;;;;1.94;86.52;101886.28;2079351;28;43206;-62
2022/05/03 01:03:57;;;;;;;3.20;1.58;;;;;;;1.98;86.78;101892.53;2087399;28;34137;-63
2022/05/03 01:05:10;;;;;;;3.35;1.55;;;;;;;1.98;86.49;101887.25;2082184;28;42430;-63
2022/05/03 01:06:49;;;;;;;2.00;1.20;;;;;;;1.97;86.79;101882.81;2079271;28;28151;-63
2022/05/03 01:08:07;;;;;;;2.20;1.40;;;;;;;1.95;86.75;101879.22;2076171;28;46167;-63
2022/05/03 01:09:17;;;;;;;1.77;1.05;;;;;;;1.94;86.69;101880.06;2077777;28;24269;-63
2022/05/03 01:10:42;;;;;;;4.05;1.77;;;;;;;1.92;86.86;101877.41;2071872;28;42892;-62
2022/05/03 01:11:53;;;;;;;2.67;1.60;;;;;;;1.89;87.47;101877.31;2080476;28;45766;-63
2022/05/03 01:13:24;;;;;;;2.55;1.50;;;;;;;1.86;85.85;101872.81;2080054;28;20882;-63
2022/05/03 01:15:00;;;;;;;2.00;1.42;;;;;;;1.82;86.11;101878.88;2078111;28;46147;-63
2022/05/03 01:16:16;;;;;;;1.90;1.00;;;;;;;1.82;87.24;101873.59;2079217;28;43045;-63
2022/05/03 01:18:14;;;;;;;2.15;1.70;;;;;;;1.80;87.49;101877.06;2079321;28;42691;-63
2022/05/03 01:20:02;;;;;;;2.65;1.75;;;;;;;1.87;88.44;101879.03;2053736;28;44312;-63
2022/05/03 01:21:30;;;;;;;3.13;1.40;;;;;;;1.85;87.73;101871.06;2079126;28;34308;-62
2022/05/03 01:23:03;;;;;;;2.42;1.60;;;;;;;1.87;87.15;101866.72;2079251;28;45905;-63
2022/05/03 01:24:53;;;;;;;2.97;1.77;;;;;;;1.83;86.87;101870.13;2078504;28;43429;-63
2022/05/03 01:26:36;;;;;;;2.53;1.60;;;;;;;1.82;87.19;101864.81;2080187;28;20080;-62
2022/05/03 01:27:59;;;;;;;3.55;2.00;;;;;;;1.79;87.35;101862.94;2079087;28;45343;-63
2022/05/03 01:29:22;;;;;;;2.80;2.08;;;;;;;1.78;87.33;101862.94;2079559;28;20065;-63
2022/05/03 01:30:28;;;;;;;6.85;2.75;;;;;;;1.75;87.27;101853.16;2086956;28;46337;-63
2022/05/03 01:31:29;;;;;;;2.95;1.85;;;;;;;1.73;87.56;101870.72;2078561;28;42567;-63
2022/05/03 01:32:32;;;;;;;3.08;1.98;;;;;;;1.74;87.49;101867.19;2079578;28;45839;-63
2022/05/03 01:33:40;;;;;;;5.20;2.40;;;;;;;1.71;87.81;101864.50;2086766;28;46140;-63
2022/05/03 01:34:45;;;;;;;2.78;1.83;;;;;;;1.71;88.09;101861.84;2079470;28;43135;-63
2022/05/03 01:35:56;;;;;;;3.80;2.33;;;;;;;1.69;88.00;101871.47;2070993;28;45997;-64
2022/05/03 01:37:00;;;;;;;;;;;;;;;1.68;87.56;101864.41;2079591;28;41571;-63
2022/05/03 01:38:17;;;;;;;2.38;1.65;;;;;;;1.67;88.28;101870.50;2078296;28;43767;-64
2022/05/03 01:39:50;;;;;;;2.03;1.65;;;;;;;1.66;88.22;101866.09;2078770;28;46062;-63
2022/05/03 01:41:38;;;;;;;4.43;2.38;;;;;;;1.63;88.59;101871.28;2079154;28;34332;-63
2022/05/03 01:43:49;;;;;;;2.83;2.22;;;;;;;1.63;nan;101866.00;2078974;28;43098;-63
2022/05/03 01:45:03;;;;;;;3.75;1.85;;;;;;;1.59;88.84;101872.06;2069815;28;44019;-64
2022/05/03 01:46:24;;;;;;;3.85;2.25;;;;;;;1.59;88.46;101877.34;2063441;28;36100;-64
2022/05/03 01:47:43;;;;;;;3.78;2.40;;;;;;;1.55;88.87;101870.19;2074696;28;45420;-63
2022/05/03 01:50:44;;;;;;;4.05;2.45;;;;;;;1.55;89.50;101865.81;2079066;28;45402;-65
2022/05/03 01:52:22;;;;;;;3.55;2.40;;;;;;;1.52;89.06;101866.59;2078522;28;44614;-64
2022/05/03 01:53:46;;;;;;;3.63;2.80;;;;;;;1.50;88.74;101867.41;2078790;28;44229;-63
2022/05/03 01:55:15;;;;;;;3.00;2.45;;;;;;;1.47;88.45;101865.59;2086612;28;44790;-62
2022/05/03 01:56:41;;;;;;;3.28;2.75;;;;;;;1.48;89.10;101872.63;2080611;28;43369;-63
2022/05/03 01:58:25;;;;;;;3.88;2.47;;;;;;;1.47;89.07;101868.22;2086467;28;45090;-63
2022/05/03 01:59:45;;;;;;;3.45;2.67;;;;;;;1.48;89.36;101869.09;2078542;28;46006;-63
2022/05/03 02:01:22;;;;;;;3.88;2.90;;;;;;;1.49;89.53;101869.16;2077099;28;44068;-63
2022/05/03 02:02:50;;;;;;;4.78;2.88;;;;;;;1.50;90.09;101868.28;2076509;28;20930;-63
2022/05/03 02:04:06;;;;;;;4.65;3.05;;;;;;;1.47;88.95;101867.31;2082624;28;20192;-62
2022/05/03 02:05:14;;;;;;;4.85;2.92;;;;;;;1.44;89.13;101865.50;2072191;28;31511;-63
2022/05/03 02:06:32;;;;;;;3.95;2.55;;;;;;;1.42;88.84;101859.28;2078446;28;44400;-63
2022/05/03 02:07:57;;;;;;;3.72;2.72;;;;;;;1.36;88.74;101859.06;2087060;28;44126;-62
2022/05/03 02:09:06;;;;;;;3.38;2.75;;;;;;;1.32;88.90;101860.72;2082018;28;20080;-62
2022/05/03 02:10:22;;;;;;;5.95;3.00;;;;;;;1.29;89.16;101851.81;2079331;28;44400;-62
2022/05/03 02:11:57;;;;;;;5.70;3.70;;;;;;;1.28;89.87;101863.25;2077767;28;44123;-63
2022/05/03 02:13:29;;;;;;;4.03;2.75;;;;;;;1.25;89.91;101865.78;2074333;28;44766;-63
2022/05/03 02:14:54;;;;;;;5.20;3.30;;;;;;;1.24;89.23;101871.91;2061568;28;29669;-64
2022/05/03 02:16:09;;;;;;;6.43;3.90;;;;;;;1.20;89.26;101865.63;2077732;28;45210;-63
2022/05/03 02:17:31;;;;;;;6.03;4.10;;;;;;;1.21;90.01;101869.19;2086048;28;38295;-62
2022/05/03 02:18:56;;;;;;;5.40;4.13;;;;;;;1.21;90.86;101866.56;2078009;28;45199;-63
2022/05/03 02:20:40;;;;;;;4.90;3.97;;;;;;;1.19;90.22;101868.25;2076041;28;39152;-63
2022/05/03 02:22:00;;;;;;;5.80;3.92;;;;;;;1.19;89.88;101865.63;2087289;28;20049;-63
2022/05/03 02:23:41;;;;;;;6.55;3.97;;;;;;;1.21;90.48;101866.56;2084795;28;20041;-63
2022/05/03 02:24:57;;;;;;;4.57;3.20;;;;;;;1.21;90.46;101861.28;2086625;28;45911;-64
2022/05/03 02:26:28;;;;;;;6.10;3.80;;;;;;;1.21;90.26;101858.63;2079784;28;44083;-63
2022/05/03 02:27:35;;;;;;;4.30;3.15;;;;;;;1.22;90.12;101858.69;2078613;28;44847;-64
2022/05/03 02:28:47;;;;;;;4.38;2.97;;;;;;;1.22;90.29;101855.13;2086780;28;43001;-63
2022/05/03 02:29:50;;;;;;;5.20;3.50;;;;;;;1.23;89.63;101860.47;2083968;28;45467;-63
2022/05/03 02:30:54;;;;;;;4.32;3.72;;;;;;;1.20;90.47;101856.84;2078779;28;45772;-63
2022/05/03 02:32:07;;;;;;;5.75;4.13;;;;;;;1.18;90.35;101854.16;2085518;28;44137;-63
2022/05/03 02:33:35;;;;;;;4.25;3.75;;;;;;;1.19;90.37;101855.06;2077983;28;46489;-63
2022/05/03 02:34:49;;;;;;;5.88;4.30;;;;;;;1.15;89.83;101856.72;2074406;28;43170;-63
2022/05/03 02:35:58;;;;;;;6.50;4.60;;;;;;;1.14;91.10;101858.44;2079978;28;20038;-63
2022/05/03 02:37:12;;;;;;;6.22;4.60;;;;;;;1.16;91.39;101854.97;2086578;28;46134;-63
2022/05/03 02:38:20;;;;;;;8.80;5.15;;;;;;;1.19;91.25;101858.59;2078279;28;43608;-63
2022/05/03 02:39:28;;;;;;;6.60;4.90;;;;;;;1.25;90.60;101855.22;2073412;28;20844;-63
2022/05/03 02:40:32;;;;;;;5.28;4.15;;;;;;;1.24;90.79;101856.06;2071913;28;45792;-63
2022/05/03 02:41:39;;;;;;;6.60;4.32;;;;;;;1.21;90.25;101853.38;2078014;28;43076;-63
2022/05/03 02:42:41;;;;;;;6.72;4.70;;;;;;;1.17;90.46;101857.66;2086293;28;46699;-63
2022/05/03 02:43:46;;;;;;;4.72;4.20;;;;;;;1.14;90.81;101858.44;2078415;28;41921;-63
2022/05/03 02:44:48;;;;;;;5.82;4.65;;;;;;;1.12;90.95;101860.13;2070637;28;45098;-63
2022/05/03 02:46:05;;;;;;;6.60;5.25;;;;;;;1.10;91.05;101859.19;2070734;28;44816;-63
2022/05/03 02:47:32;;;;;;;6.65;4.03;;;;;;;1.07;90.89;101856.47;2078883;28;37721;-63
2022/05/03 02:48:51;;;;;;;5.45;4.18;;;;;;;1.06;91.28;101853.75;2086358;28;45129;-65
2022/05/03 02:50:13;;;;;;;6.95;4.70;;;;;;;1.05;91.57;101846.72;2078614;28;39028;-65
2022/05/03 02:51:21;;;;;;;8.15;5.10;;;;;;;1.03;91.04;101849.31;2078805;28;45452;-63
2022/05/03 02:52:42;;;;;;;5.50;3.88;;;;;;;1.00;91.17;101851.84;2087235;28;20716;-65
2022/05/03 02:53:56;;;;;;;7.22;4.70;;;;;;;0.96;91.07;101847.31;2078635;28;44908;-65
2022/05/03 02:55:08;;;;;;;5.35;4.13;;;;;;;0.95;91.36;101850.81;2081228;28;42974;-63
2022/05/03 02:56:28;;;;;;;6.80;5.05;;;;;;;0.93;90.84;101852.50;2078185;28;43993;-62
2022/05/03 02:58:01;;;;;;;5.60;4.30;;;;;;;0.90;91.75;101844.53;2073399;28;44387;-62
2022/05/03 02:59:23;;;;;;;7.68;4.63;;;;;;;0.89;91.77;101845.34;2078480;28;44282;-63
2022/05/03 03:02:32;;;;;;;8.88;5.68;;;;;;;0.85;91.68;101846.09;2083436;28;31227;-63
2022/05/03 03:03:53;;;;;;;5.47;4.80;;;;;;;0.84;91.50;101842.56;2079384;28;41478;-63
2022/05/03 03:05:05;;;;;;;6.03;4.57;;;;;;;0.86;91.63;101851.44;2078802;28;44644;-63
2022/05/03 03:06:19;;;;;;;5.45;4.63;;;;;;;0.88;91.72;101851.44;2086902;28;43893;-63
2022/05/03 03:07:22;;;;;;;7.22;5.20;;;;;;;0.88;91.28;101851.44;2070253;28;41012;-63
2022/05/03 03:08:27;;;;;;;7.55;5.60;;;;;;;0.89;91.19;101851.50;2064415;28;45781;-63
2022/05/03 03:09:49;;;;;;;6.97;4.68;;;;;;;0.89;91.24;101847.97;2079222;28;20033;-64
2022/05/03 03:11:20;;;;;;;6.38;4.78;;;;;;;0.90;91.65;101844.53;2086503;28;43636;-64
2022/05/03 03:12:38;;;;;;;7.85;5.32;;;;;;;0.88;91.53;101856.72;2078030;28;46362;-63
2022/05/03 03:14:10;;;;;;;6.90;5.03;;;;;;;0.84;91.46;101855.72;2078014;28;42068;-64
2022/05/03 03:15:18;;;;;;;9.48;5.55;;;;;;;0.82;91.10;101854.78;2086893;28;30249;-64
2022/05/03 03:16:32;;;;;;;7.00;5.32;;;;;;;0.81;91.38;101850.38;2084165;28;20045;-63
2022/05/03 03:17:40;;;;;;;9.27;6.28;;;;;;;0.78;91.85;101846.75;2078563;28;45614;-64
2022/05/03 03:18:46;;;;;;;7.28;5.72;;;;;;;0.79;92.00;101859.06;2086307;28;39204;-63
2022/05/03 03:19:59;;;;;;;6.82;5.38;;;;;;;0.77;92.27;101856.38;2078013;28;39266;-63
2022/05/03 03:21:06;;;;;;;6.28;5.03;;;;;;;0.75;92.13;101855.44;2078169;28;45386;-64
2022/05/03 03:22:13;;;;;;;7.68;6.05;;;;;;;0.72;92.68;101852.75;2079690;28;45864;-63
2022/05/03 03:23:15;;;;;;;8.43;6.55;;;;;;;0.70;92.31;101860.59;2080443;28;45179;-63
2022/05/03 03:24:19;;;;;;;9.73;6.28;;;;;;;0.69;92.46;101860.53;2087570;28;46579;-63
2022/05/03 03:25:23;;;;;;;7.63;6.57;;;;;;;0.70;92.90;101855.31;2088533;28;27942;-63
2022/05/03 03:26:29;;;;;;;7.70;6.03;;;;;;;0.69;91.97;101858.78;2086672;28;44303;-63
2022/05/03 03:27:32;;;;;;;8.15;6.55;;;;;;;0.70;93.04;101863.22;2086724;28;45493;-63
2022/05/03 03:28:36;;;;;;;6.47;5.22;;;;;;;0.72;93.29;101860.66;2087277;28;45756;-63
2022/05/03 03:29:40;;;;;;;8.80;6.07;;;;;;;0.71;93.11;101867.63;2079939;28;45598;-63
2022/05/03 03:30:44;;;;;;;7.97;5.82;;;;;;;0.73;93.23;101857.16;2080153;28;44604;-63
2022/05/03 03:31:50;;;;;;;7.63;6.05;;;;;;;0.74;92.99;101857.19;2088354;28;20042;-63
2022/05/03 03:32:56;;;;;;;7.97;5.30;;;;;;;0.74;92.49;101856.31;2087370;28;34115;-63
2022/05/03 03:33:59;;;;;;;6.32;5.38;;;;;;;0.72;92.63;101851.00;2080108;28;42345;-63
2022/05/03 03:35:02;;;;;;;6.72;5.18;;;;;;;0.74;92.32;101856.31;2080124;28;44032;-63
2022/05/03 03:36:08;;;;;;;7.25;5.00;;;;;;;0.71;93.12;101849.19;2087369;28;44609;-63
2022/05/03 03:37:13;;;;;;;8.25;5.22;;;;;;;0.72;92.93;101853.63;2086260;28;44986;-63
2022/05/03 03:38:16;;;;;;;8.20;5.60;;;;;;;0.73;92.17;101859.78;2086943;28;46170;-63
2022/05/03 03:39:18;;;;;;;9.23;6.60;;;;;;;0.71;92.50;101849.19;2079656;28;33111;-63
2022/05/03 03:40:20;;;;;;;7.00;6.03;;;;;;;0.72;92.63;101851.00;2079335;28;39151;-63
2022/05/03 03:41:23;;;;;;;10.07;5.50;;;;;;;0.71;91.85;101851.81;2087876;28;42650;-63
2022/05/03 03:42:29;;;;;;;8.48;5.68;;;;;;;0.71;92.65;101850.94;2080391;28;20038;-63
2022/05/03 03:43:31;;;;;;;6.07;5.30;;;;;;;0.70;92.27;101852.69;2079318;28;44237;-63
2022/05/03 03:44:33;;;;;;;7.53;5.45;;;;;;;0.69;91.84;101853.50;2080086;28;42471;-63
2022/05/03 03:45:36;;;;;;;6.70;5.18;;;;;;;0.66;92.39;101852.53;2079824;28;44086;-63
2022/05/03 03:46:38;;;;;;;8.20;6.43;;;;;;;0.64;92.11;101849.84;2079927;28;45823;-63
2022/05/03 03:47:43;;;;;;;10.55;6.47;;;;;;;0.65;92.66;101858.66;2080587;28;31268;-63
2022/05/03 03:48:45;;;;;;;9.98;7.15;;;;;;;0.65;92.41;101856.91;2079817;28;44804;-63
2022/05/03 03:49:47;;;;;;;10.25;7.32;;;;;;;0.65;93.31;101853.38;2087982;28;41895;-63
2022/05/03 03:50:54;;;;;;;10.50;7.25;;;;;;;0.64;93.08;101855.09;2079762;28;43384;-63
2022/05/03 03:51:57;;;;;;;9.70;6.43;;;;;;;0.68;92.90;101853.47;2071853;28;46461;-64
2022/05/03 03:52:59;;;;;;;7.25;5.32;;;;;;;0.68;92.56;101858.72;2071758;28;42324;-63
2022/05/03 03:54:01;;;;;;;7.90;5.88;;;;;;;0.67;93.14;101860.47;2080098;28;20042;-63
2022/05/03 03:55:04;;;;;;;9.27;6.60;;;;;;;0.67;93.66;101860.47;2079752;28;44231;-64
2022/05/03 03:56:10;;;;;;;8.52;6.18;;;;;;;0.69;93.93;101856.16;2080108;28;43959;-64
2022/05/03 03:57:13;;;;;;;6.47;5.28;;;;;;;0.73;93.34;101859.78;2079050;28;45297;-64
2022/05/03 03:58:17;;;;;;;8.70;6.30;;;;;;;0.73;93.11;101858.03;2088328;28;20080;-63
2022/05/03 03:59:19;;;;;;;8.15;6.13;;;;;;;0.76;93.02;101855.50;2079044;28;45198;-63
2022/05/03 04:00:21;;;;;;;10.75;7.22;;;;;;;0.81;93.32;101850.38;2071692;28;45907;-63
2022/05/03 04:01:25;;;;;;;8.32;6.30;;;;;;;0.85;93.55;101859.28;2078767;28;45333;-63
2022/05/03 04:02:27;;;;;;;9.63;7.05;;;;;;;0.88;93.84;101859.38;2088210;28;26509;-64
2022/05/03 04:03:30;;;;;;;11.32;7.47;;;;;;;0.93;93.59;101855.13;2079096;28;43564;-63
2022/05/03 04:04:38;;;;;;;8.93;6.45;;;;;;;0.96;93.39;101863.16;2078946;28;39358;-63
2022/05/03 04:05:39;;;;;;;8.32;5.45;;;;;;;0.99;92.45;101852.72;2086533;28;44588;-64
2022/05/03 04:06:41;;;;;;;9.20;6.43;;;;;;;1.00;93.22;101865.03;2079113;28;45437;-63
2022/05/03 04:07:45;;;;;;;9.77;8.02;;;;;;;1.04;93.56;101860.75;2079080;28;45171;-63
2022/05/03 04:08:47;;;;;;;10.23;6.40;;;;;;;1.06;93.27;101856.41;2076147;28;43740;-66
2022/05/03 04:09:49;;;;;;;8.27;6.05;;;;;;;1.07;92.28;101851.19;2087104;28;37214;-63
2022/05/03 04:10:51;;;;;;;7.18;5.82;;;;;;;1.10;93.00;101860.94;2087471;28;44501;-63
2022/05/03 04:11:53;;;;;;;11.30;6.65;;;;;;;1.10;92.85;101851.28;2078981;28;44086;-63
2022/05/03 04:12:55;;;;;;;9.77;7.32;;;;;;;1.18;93.05;101858.53;2079452;28;46670;-65
2022/05/03 04:13:56;;;;;;;9.40;7.00;;;;;;;1.23;93.11;101862.22;2116210;22;43408;-61
2022/05/03 04:14:58;;;;;;;12.80;8.88;;;;;;;1.30;92.59;101861.53;2097886;28;37058;-61
2022/05/03 04:16:02;;;;;;;12.20;8.40;;;;;;;1.35;93.36;101862.59;2079729;28;43944;-61
2022/05/03 04:17:04;;;;;;;11.15;7.90;;;;;;;1.46;94.23;101861.16;2079019;28;42868;-62
2022/05/03 04:18:07;;;;;;;11.68;8.77;;;;;;;1.58;94.27;101854.41;2079297;28;42389;-61
2022/05/03 04:19:11;;;;;;;11.82;8.57;;;;;;;1.59;93.53;101861.50;2079927;28;43276;-61
2022/05/03 04:20:18;;;;;;;11.15;8.60;;;;;;;1.65;93.22;101864.31;2079913;28;43737;-61
2022/05/03 04:21:20;;;;;;;10.45;6.88;;;;;;;1.77;93.10;101861.13;2070891;28;45126;-61
2022/05/03 04:22:33;;;;;;;12.35;8.52;;;;;;;2.01;93.44;101860.91;2070355;28;43697;-62
2022/05/03 04:23:34;;;;;;;11.80;7.72;;;;;;;2.32;92.86;101853.81;2087983;28;44282;-60
2022/05/03 04:24:36;;;;;;;11.75;8.27;;;;;;;2.62;92.91;101857.22;2088087;28;44426;-60
2022/05/03 04:25:38;;;;;;;9.82;7.13;;;;;;;2.98;92.59;101851.00;2088067;28;43272;-60
2022/05/03 04:26:40;;;;;;;11.18;7.97;;;;;;;3.31;91.38;101847.31;2087830;28;44223;-60
2022/05/03 04:27:41;;;;;;;10.20;6.63;;;;;;;3.67;90.53;101845.41;2087955;28;43663;-60
2022/05/03 04:28:44;;;;;;;8.93;6.38;;;;;;;4.01;89.76;101844.28;2088242;28;37866;-61
2022/05/03 04:29:47;;;;;;;7.32;5.70;;;;;;;4.37;88.85;101837.88;2087427;28;44311;-60
2022/05/03 04:30:49;;;;;;;6.75;5.63;;;;;;;4.71;88.07;101844.59;2087520;28;26730;-61
2022/05/03 04:31:51;;;;;;;5.75;5.15;;;;;;;5.00;85.61;101846.81;2087306;28;39308;-61
2022/05/03 04:32:53;;;;;;;6.28;5.07;;;;;;;5.34;85.00;101845.50;2088100;28;42632;-61
2022/05/03 04:33:55;;;;;;;6.85;4.70;;;;;;;5.67;83.46;101844.16;2087730;28;44514;-61
2022/05/03 04:34:58;;;;;;;7.35;4.80;;;;;;;5.89;80.66;101839.09;2087477;28;44385;-60
2022/05/03 04:35:59;;;;;;;9.63;4.63;;;;;;;6.19;79.89;101840.31;2088093;28;44979;-61
2022/05/03 04:37:01;;;;;;;6.63;4.50;;;;;;;6.41;76.79;101836.97;2087073;28;45209;-60
2022/05/03 04:38:05;;;;;;;6.13;4.30;;;;;;;6.75;77.72;101834.59;2087535;28;43657;-60
2022/05/03 04:39:07;;;;;;;5.88;4.60;;;;;;;6.94;75.82;101838.25;2087510;28;43492;-61
2022/05/03 04:40:09;;;;;;;4.68;4.15;;;;;;;7.15;75.66;101842.81;2088660;28;20150;-60
2022/05/03 04:41:15;;;;;;;7.07;3.97;;;;;;;7.15;75.08;101840.16;2087836;28;41399;-60
2022/05/03 04:42:17;;;;;;;4.25;3.58;;;;;;;7.22;74.66;101841.97;2086690;28;44358;-61
2022/05/03 04:43:18;;;;;;;4.32;3.60;;;;;;;7.30;73.85;101842.00;2088703;28;20049;-61
2022/05/03 04:44:20;;;;;;;4.03;3.38;;;;;;;7.49;72.70;101843.00;2088582;28;45440;-61
2022/05/03 04:45:21;;;;;;;4.15;3.47;;;;;;;7.54;72.56;101846.56;2089709;28;45931;-61
2022/05/03 04:46:23;;;;;;;6.93;3.42;;;;;;;7.40;72.21;101842.97;2087840;28;43568;-60
2022/05/03 04:47:25;;;;;;;6.63;3.70;;;;;;;7.29;73.00;101844.69;2087509;28;44035;-60
2022/05/03 04:48:27;;;;;;;4.82;3.55;;;;;;;7.13;72.37;101847.25;2087666;28;43275;-61
2022/05/03 04:49:28;;;;;;;5.32;3.90;;;;;;;7.06;73.14;101850.75;2078387;28;45448;-61
2022/05/03 04:50:30;;;;;;;4.35;2.83;;;;;;;6.96;73.96;101848.91;2079607;28;44876;-61
2022/05/03 04:51:33;;;;;;;4.57;3.40;;;;;;;6.76;74.22;101846.13;2079115;28;43453;-61
2022/05/03 04:52:34;;;;;;;5.72;3.53;;;;;;;6.64;74.80;101854.88;2079497;28;42860;-61
2022/05/03 04:53:38;;;;;;;4.07;3.45;;;;;;;6.47;75.09;101852.97;2079444;28;44274;-61
2022/05/03 04:54:39;;;;;;;6.65;3.40;;;;;;;6.27;75.71;101844.81;2085461;28;45282;-61
2022/05/03 04:55:41;;;;;;;4.15;3.70;;;;;;;6.17;75.99;101847.38;2087535;28;46013;-61
2022/05/03 04:56:52;;;;;;;5.97;4.53;;;;;;;6.07;76.51;101847.28;2087873;28;41989;-61
2022/05/03 04:57:54;;;;;;;7.93;4.13;;;;;;;5.93;76.87;101843.56;2103718;28;45263;-61
2022/05/03 04:58:56;;;;;;;5.88;3.92;;;;;;;5.85;78.20;101851.47;2101103;28;46146;-61
2022/05/03 04:59:57;;;;;;;9.95;4.20;;;;;;;5.74;77.69;101851.34;2087181;28;43382;-60
2022/05/03 05:01:00;;;;;;;7.13;4.72;;;;;;;5.63;77.67;101850.28;2087622;28;38880;-61
2022/05/03 05:02:02;;;;;;;6.15;5.13;;;;;;;5.53;78.89;101859.03;2087574;28;43605;-60
2022/05/03 05:03:23;;;;;;;7.00;4.53;;;;;;;5.52;79.15;101857.25;2087320;28;45715;-59
2022/05/03 05:04:57;;;;;;;7.70;4.85;;;;;;;5.45;79.55;101855.38;2088615;28;20879;-59
2022/05/03 05:06:19;;;;;;;6.35;4.68;;;;;;;5.43;79.55;101865.97;2087955;28;20040;-59
2022/05/03 05:07:38;;;;;;;6.13;4.75;;;;;;;5.33;79.22;101867.66;2088100;28;20048;-59
2022/05/03 05:08:45;;;;;;;8.43;4.40;;;;;;;5.38;79.77;101861.50;2088468;28;20038;-60
2022/05/03 05:11:08;;;;;;;7.10;4.63;;;;;;;5.34;80.70;101869.41;2097581;28;46655;-61
2022/05/03 05:12:10;;;;;;;7.05;4.95;;;;;;;5.35;80.93;101868.56;2087776;28;39171;-64
2022/05/03 05:13:11;;;;;;;5.63;4.10;;;;;;;5.40;79.96;101863.31;2087370;28;45871;-61
2022/05/03 05:14:13;;;;;;;7.05;4.55;;;;;;;5.46;79.77;101868.69;2087398;28;45844;-60
2022/05/03 05:15:15;;;;;;;6.18;5.20;;;;;;;5.46;80.70;101866.03;2088802;28;20037;-61
2022/05/03 05:16:17;;;;;;;8.15;6.03;;;;;;;5.50;80.49;101865.19;2087216;28;44730;-61
2022/05/03 05:17:19;;;;;;;7.13;4.63;;;;;;;5.58;80.95;101867.06;2087846;28;43911;-61
2022/05/03 05:18:21;;;;;;;6.20;4.88;;;;;;;5.59;79.49;101864.41;2087312;28;43121;-61
2022/05/03 05:19:23;;;;;;;8.45;5.72;;;;;;;5.56;80.16;101864.38;2088223;28;20111;-60
2022/05/03 05:20:25;;;;;;;7.07;4.68;;;;;;;5.66;81.07;101860.97;2087273;28;45084;-61
2022/05/03 05:21:27;;;;;;;6.63;4.88;;;;;;;5.72;80.57;101866.38;2087938;28;45146;-61
2022/05/03 05:22:30;;;;;;;8.20;5.65;;;;;;;5.82;80.09;101864.69;2087659;28;42050;-60
2022/05/03 05:23:32;;;;;;;6.57;4.32;;;;;;;5.96;79.04;101856.94;2086993;28;45454;-61
2022/05/03 05:24:33;;;;;;;6.07;5.18;;;;;;;6.15;79.66;101857.09;2087241;28;46354;-60
2022/05/03 05:25:35;;;;;;;6.88;5.20;;;;;;;6.31;78.61;101861.69;2103593;28;42884;-61
2022/05/03 05:26:41;;;;;;;5.88;5.25;;;;;;;6.66;78.40;101864.69;2102334;28;44717;-61
2022/05/03 05:27:43;;;;;;;7.72;5.38;;;;;;;7.01;76.96;101860.50;2087532;28;45860;-60
2022/05/03 05:28:44;;;;;;;6.72;4.70;;;;;;;7.32;75.31;101850.00;2087403;28;45216;-61
2022/05/03 05:29:46;;;;;;;7.55;5.10;;;;;;;7.64;74.35;101856.41;2087461;28;32289;-62
2022/05/03 05:30:50;;;;;;;7.25;5.22;;;;;;;7.85;72.77;101857.34;2087620;28;42612;-61
2022/05/03 05:31:51;;;;;;;6.30;4.97;;;;;;;8.13;72.29;101857.41;2103011;28;44097;-60
2022/05/03 05:34:11;;;;;;;10.70;5.22;;;;;;;8.57;70.71;101853.94;2080540;28;20037;-64
2022/05/03 05:35:13;;;;;;;6.15;4.95;;;;;;;8.62;69.59;101856.63;2079050;28;46393;-64
2022/05/03 05:36:19;;;;;;;11.40;5.03;;;;;;;8.37;69.79;101854.78;2078974;28;44531;-64
2022/05/03 05:37:21;;;;;;;8.05;5.10;;;;;;;8.34;70.22;101851.22;2078526;28;45336;-64
2022/05/03 05:38:22;;;;;;;9.98;4.88;;;;;;;8.31;70.57;101851.19;2078566;28;42699;-64
2022/05/03 05:39:27;;;;;;;6.55;4.53;;;;;;;8.24;69.95;101850.31;2074456;28;44287;-64
2022/05/03 05:40:29;;;;;;;7.80;5.43;;;;;;;8.05;70.00;101849.38;2071003;28;33723;-63